createdAt,value
2018-09-19T00:01:23.938Z,11.63
2018-09-19T00:03:52.531Z,12.47
2018-09-19T00:06:21.143Z,18.48
2018-09-19T00:08:49.758Z,12.65
2018-09-19T00:11:18.435Z,16.70
2018-09-19T00:13:47.024Z,12.70
2018-09-19T00:16:15.638Z,12.33
2018-09-19T00:18:47.413Z,18.15
2018-09-19T00:21:16.016Z,11.38
2018-09-19T00:23:44.603Z,17.65
2018-09-19T00:26:13.162Z,13.53
2018-09-19T00:28:42.298Z,13.88
2018-09-19T00:31:10.866Z,10.88
2018-09-19T00:33:39.470Z,16.80
2018-09-19T00:36:08.120Z,13.20
2018-09-19T00:38:36.669Z,16.35
2018-09-19T00:41:08.323Z,17.07
2018-09-19T00:43:36.895Z,16.17
2018-09-19T00:46:05.549Z,17.65
2018-09-19T00:48:34.110Z,18.02
2018-09-19T00:51:02.712Z,16.52
2018-09-19T00:53:31.752Z,11.30
2018-09-19T00:56:00.338Z,18.35
2018-09-19T00:58:28.948Z,21.12
2018-09-19T01:00:57.540Z,17.50
2018-09-19T01:03:26.119Z,13.18
2018-09-19T01:05:54.746Z,13.22
2018-09-19T01:08:23.372Z,11.97
2018-09-19T01:10:51.960Z,18.75
2018-09-19T01:13:20.568Z,9.20
2018-09-19T01:15:49.125Z,23.73
2018-09-19T01:18:17.820Z,15.65
2018-09-19T01:20:46.410Z,13.80
2018-09-19T01:23:14.949Z,16.10
2018-09-19T01:25:43.497Z,12.25
2018-09-19T01:28:12.110Z,15.25
2018-09-19T01:30:40.692Z,14.75
2018-09-19T01:33:09.294Z,13.95
2018-09-19T01:35:37.936Z,12.73
2018-09-19T01:38:06.531Z,14.25
2018-09-19T01:40:35.113Z,12.68
2018-09-19T01:43:03.737Z,14.87
2018-09-19T01:45:32.324Z,13.68
2018-09-19T01:48:00.897Z,17.30
2018-09-19T01:50:29.482Z,12.55
2018-09-19T01:52:58.063Z,13.93
2018-09-19T01:55:26.645Z,13.58
2018-09-19T01:57:55.260Z,8.70
2018-09-19T02:00:23.879Z,12.63
2018-09-19T02:02:52.419Z,13.32
2018-09-19T02:05:21.056Z,10.83
2018-09-19T02:07:49.649Z,14.15
2018-09-19T02:10:18.228Z,11.70
2018-09-19T02:12:46.840Z,10.28
2018-09-19T02:15:15.422Z,15.20
2018-09-19T02:17:44.035Z,15.40
2018-09-19T02:20:12.662Z,9.27
2018-09-19T02:22:41.219Z,10.40
2018-09-19T02:25:09.801Z,13.85
2018-09-19T02:27:38.395Z,11.88
2018-09-19T02:30:07.065Z,11.20
2018-09-19T02:32:35.614Z,9.35
2018-09-19T02:35:04.270Z,14.23
2018-09-19T02:37:32.841Z,14.30
2018-09-19T02:40:01.415Z,11.88
2018-09-19T02:42:30.017Z,11.75
2018-09-19T02:44:58.689Z,10.53
2018-09-19T02:47:27.213Z,11.15
2018-09-19T02:49:55.919Z,15.20
2018-09-19T02:52:24.459Z,8.58
2018-09-19T02:54:53.053Z,19.92
2018-09-19T02:57:21.651Z,12.43
2018-09-19T02:59:50.204Z,9.03
2018-09-19T03:02:18.733Z,15.48
2018-09-19T03:04:47.352Z,9.88
2018-09-19T03:07:16.005Z,10.30
2018-09-19T03:09:44.574Z,14.73
2018-09-19T03:12:13.464Z,10.95
2018-09-19T03:14:42.084Z,10.90
2018-09-19T03:17:10.909Z,9.80
2018-09-19T03:19:39.457Z,10.20
2018-09-19T03:22:08.037Z,12.55
2018-09-19T03:24:36.607Z,10.80
2018-09-19T03:27:05.191Z,18.67
2018-09-19T03:29:35.088Z,11.08
2018-09-19T03:32:04.143Z,11.90
2018-09-19T03:34:32.744Z,10.80
2018-09-19T03:37:01.345Z,11.65
2018-09-19T03:39:29.965Z,10.85
2018-09-19T03:41:58.572Z,12.58
2018-09-19T03:44:27.160Z,8.85
2018-09-19T03:46:57.831Z,7.33
2018-09-19T03:49:26.507Z,10.13
2018-09-19T03:51:55.097Z,8.58
2018-09-19T03:54:23.681Z,11.73
2018-09-19T03:56:52.243Z,10.75
2018-09-19T03:59:21.318Z,9.80
2018-09-19T04:01:49.977Z,12.35
2018-09-19T04:04:18.629Z,6.65
2018-09-19T04:06:47.259Z,13.65
2018-09-19T04:09:15.817Z,16.40
2018-09-19T04:11:44.411Z,15.23
2018-09-19T04:14:13.175Z,8.63
2018-09-19T04:16:42.010Z,13.70
2018-09-19T04:19:10.702Z,10.68
2018-09-19T04:21:55.719Z,11.93
2018-09-19T04:24:24.362Z,14.87
2018-09-19T04:26:52.970Z,17.50
2018-09-19T04:29:21.593Z,49.15
2018-09-19T04:31:50.238Z,25.27
2018-09-19T04:34:18.827Z,29.18
2018-09-19T04:36:47.414Z,28.40
2018-09-19T04:39:16.031Z,31.77
2018-09-19T04:41:44.589Z,33.65
2018-09-19T04:44:13.194Z,39.03
2018-09-19T04:46:41.792Z,44.18
2018-09-19T04:49:10.389Z,49.25
2018-09-19T04:51:40.214Z,42.85
2018-09-19T04:54:09.188Z,51.77
2018-09-19T04:56:38.194Z,55.52
2018-09-19T04:59:06.844Z,61.50
2018-09-19T05:01:35.434Z,60.60
2018-09-19T05:04:04.063Z,53.83
2018-09-19T05:06:32.650Z,63.02
2018-09-19T05:09:01.315Z,51.63
2018-09-19T05:11:29.927Z,57.27
2018-09-19T05:13:58.537Z,55.83
2018-09-19T05:16:27.129Z,58.05
2018-09-19T05:18:55.725Z,46.45
2018-09-19T05:21:24.300Z,51.10
2018-09-19T05:23:52.883Z,42.60
2018-09-19T05:26:21.482Z,42.15
2018-09-19T05:28:50.159Z,44.95
2018-09-19T05:31:18.769Z,34.18
2018-09-19T05:33:47.367Z,34.13
2018-09-19T05:36:15.936Z,25.85
2018-09-19T05:38:44.521Z,29.85
2018-09-19T05:41:13.148Z,30.12
2018-09-19T05:43:41.800Z,30.32
2018-09-19T05:46:16.870Z,30.75
2018-09-19T05:48:45.439Z,27.98
2018-09-19T05:51:14.030Z,32.73
2018-09-19T05:53:42.684Z,36.35
2018-09-19T05:56:11.292Z,37.75
2018-09-19T05:58:39.889Z,36.90
2018-09-19T06:01:08.611Z,34.50
2018-09-19T06:03:37.195Z,42.33
2018-09-19T06:06:05.942Z,43.50
2018-09-19T06:08:35.154Z,44.10
2018-09-19T06:11:03.737Z,48.08
2018-09-19T06:13:32.339Z,46.63
2018-09-19T06:16:01.035Z,46.58
2018-09-19T06:18:29.657Z,45.63
2018-09-19T06:20:58.258Z,45.05
2018-09-19T06:23:26.892Z,48.55
2018-09-19T06:25:55.482Z,55.48
2018-09-19T06:28:24.056Z,54.70
2018-09-19T06:30:52.687Z,53.83
2018-09-19T06:33:21.268Z,47.08
2018-09-19T06:35:49.849Z,49.95
2018-09-19T06:38:18.479Z,57.15
2018-09-19T06:40:47.203Z,56.42
2018-09-19T06:43:15.726Z,53.80
2018-09-19T06:45:44.422Z,59.98
2018-09-19T06:48:13.030Z,64.00
2018-09-19T06:50:41.632Z,71.10
2018-09-19T06:53:10.246Z,67.80
2018-09-19T06:55:38.920Z,68.75
2018-09-19T06:58:07.504Z,72.03
2018-09-19T07:00:36.126Z,74.53
2018-09-19T07:03:04.736Z,79.72
2018-09-19T07:05:33.335Z,66.70
2018-09-19T07:08:01.957Z,70.75
2018-09-19T07:10:30.678Z,79.42
2018-09-19T07:12:59.243Z,70.12
2018-09-19T07:15:27.884Z,76.55
2018-09-19T07:17:56.468Z,63.00
2018-09-19T07:20:25.106Z,66.20
2018-09-19T07:22:53.754Z,63.35
2018-09-19T07:25:22.458Z,59.45
2018-09-19T07:27:51.002Z,67.08
2018-09-19T07:30:19.648Z,57.43
2018-09-19T07:32:48.285Z,54.80
2018-09-19T07:35:16.889Z,49.10
2018-09-19T07:37:45.629Z,47.00
2018-09-19T07:40:14.257Z,43.00
2018-09-19T07:42:42.791Z,40.63
2018-09-19T07:45:11.444Z,35.03
2018-09-19T07:47:40.061Z,30.50
2018-09-19T07:50:09.268Z,31.85
2018-09-19T07:52:39.003Z,25.10
2018-09-19T07:55:08.011Z,18.48
2018-09-19T07:57:36.944Z,18.15
2018-09-19T08:00:05.744Z,16.77
2018-09-19T08:02:34.415Z,16.55
2018-09-19T08:05:03.017Z,9.25
2018-09-19T08:07:31.662Z,11.08
2018-09-19T08:10:00.251Z,7.12
2018-09-19T08:12:28.848Z,4.97
2018-09-19T08:14:57.643Z,8.60
2018-09-19T08:17:26.255Z,4.95
2018-09-19T08:19:55.549Z,9.40
2018-09-19T08:22:24.241Z,6.37
2018-09-19T08:24:52.861Z,6.80
2018-09-19T08:27:21.507Z,6.28
2018-09-19T08:29:50.175Z,8.85
2018-09-19T08:32:18.791Z,10.80
2018-09-19T08:34:47.403Z,6.65
2018-09-19T08:37:16.043Z,8.63
2018-09-19T08:39:44.644Z,10.10
2018-09-19T08:42:13.309Z,7.60
2018-09-19T08:44:41.945Z,10.82
2018-09-19T08:47:10.503Z,8.35
2018-09-19T08:49:39.187Z,7.25
2018-09-19T08:52:07.820Z,5.85
2018-09-19T08:54:36.495Z,7.62
2018-09-19T08:57:05.242Z,12.73
2018-09-19T08:59:35.195Z,5.92
2018-09-19T09:02:03.966Z,8.00
2018-09-19T09:04:38.073Z,10.35
2018-09-19T09:07:06.716Z,6.83
2018-09-19T09:09:35.333Z,12.23
2018-09-19T09:12:04.068Z,8.43
2018-09-19T09:14:32.778Z,15.30
2018-09-19T09:17:01.421Z,8.90
2018-09-19T09:19:30.102Z,13.08
2018-09-19T09:21:58.712Z,4.65
2018-09-19T09:24:27.330Z,7.60
2018-09-19T09:26:56.093Z,9.28
2018-09-19T09:29:24.644Z,8.05
2018-09-19T09:31:53.275Z,7.50
2018-09-19T09:34:21.958Z,11.15
2018-09-19T09:36:51.146Z,11.25
2018-09-19T09:39:19.758Z,14.40
2018-09-19T09:41:48.404Z,10.45
2018-09-19T09:44:17.040Z,5.30
2018-09-19T09:46:45.635Z,9.60
2018-09-19T09:49:14.277Z,10.50
2018-09-19T09:51:42.873Z,10.25
2018-09-19T09:54:11.495Z,11.30
2018-09-19T09:56:40.120Z,8.40
2018-09-19T09:59:08.744Z,9.70
2018-09-19T10:01:37.357Z,15.70
2018-09-19T10:04:06.206Z,10.48
2018-09-19T10:06:34.866Z,7.05
2018-09-19T10:09:04.872Z,6.75
2018-09-19T10:11:33.507Z,11.95
2018-09-19T10:14:02.164Z,11.97
2018-09-19T10:16:31.029Z,7.75
2018-09-19T10:18:59.775Z,12.50
2018-09-19T10:21:28.432Z,10.08
2018-09-19T10:23:57.003Z,10.90
2018-09-19T10:26:25.649Z,12.10
2018-09-19T10:28:54.391Z,21.62
2018-09-19T10:31:22.951Z,19.00
2018-09-19T10:33:51.570Z,18.05
2018-09-19T10:36:20.204Z,19.77
2018-09-19T10:38:48.845Z,19.45
2018-09-19T10:41:17.488Z,24.67
2018-09-19T10:43:46.151Z,25.72
2018-09-19T10:46:14.866Z,26.20
2018-09-19T10:48:43.581Z,37.20
2018-09-19T10:51:12.249Z,34.27
2018-09-19T10:53:40.898Z,37.53
2018-09-19T10:56:09.565Z,45.10
2018-09-19T10:58:39.032Z,48.45
2018-09-19T11:01:07.684Z,46.92
2018-09-19T11:03:36.305Z,47.05
2018-09-19T11:06:04.935Z,45.63
2018-09-19T11:08:33.534Z,46.50
2018-09-19T11:11:02.179Z,31.27
2018-09-19T11:13:30.831Z,28.75
2018-09-19T11:15:59.473Z,14.00
2018-09-19T11:18:28.127Z,13.75
2018-09-19T11:20:56.727Z,12.58
2018-09-19T11:23:25.358Z,13.45
2018-09-19T11:25:53.986Z,14.73
2018-09-19T11:28:22.591Z,9.53
2018-09-19T11:30:51.192Z,11.68
2018-09-19T11:33:19.867Z,10.68
2018-09-19T11:35:48.484Z,11.25
2018-09-19T11:38:17.107Z,14.53
2018-09-19T11:40:45.779Z,13.15
2018-09-19T11:43:14.428Z,12.98
2018-09-19T11:45:43.062Z,12.80
2018-09-19T11:48:11.704Z,14.03
2018-09-19T11:50:40.343Z,12.88
2018-09-19T11:53:13.255Z,12.28
2018-09-19T11:55:41.815Z,10.48
2018-09-19T11:58:10.464Z,10.85
2018-09-19T12:00:39.119Z,11.88
2018-09-19T12:03:07.727Z,11.43
2018-09-19T12:05:36.340Z,10.03
2018-09-19T12:08:05.031Z,10.48
2018-09-19T12:10:33.667Z,13.70
2018-09-19T12:13:02.380Z,12.30
2018-09-19T12:15:31.112Z,12.55
2018-09-19T12:18:02.158Z,11.83
2018-09-19T12:20:30.810Z,12.63
2018-09-19T12:22:59.456Z,10.68
2018-09-19T12:25:28.455Z,8.33
2018-09-19T12:27:57.131Z,9.95
2018-09-19T12:30:26.023Z,8.48
2018-09-19T12:32:54.615Z,12.37
2018-09-19T12:35:23.283Z,12.83
2018-09-19T12:37:52.822Z,9.28
2018-09-19T12:40:21.443Z,11.83
2018-09-19T12:42:50.100Z,10.85
2018-09-19T12:45:18.715Z,10.53
2018-09-19T12:47:47.344Z,14.45
2018-09-19T12:50:15.923Z,8.20
2018-09-19T12:52:44.556Z,11.30
2018-09-19T12:55:13.178Z,7.05
2018-09-19T12:57:41.788Z,9.38
2018-09-19T13:00:10.414Z,8.78
2018-09-19T13:02:39.017Z,9.58
2018-09-19T13:05:07.821Z,9.98
2018-09-19T13:07:36.469Z,11.30
2018-09-19T13:10:08.274Z,9.30
2018-09-19T13:12:36.917Z,9.15
2018-09-19T13:15:06.541Z,6.90
2018-09-19T13:17:35.178Z,12.75
2018-09-19T13:20:03.921Z,8.85
2018-09-19T13:22:32.548Z,10.00
2018-09-19T13:25:01.176Z,10.58
2018-09-19T13:27:29.852Z,11.88
2018-09-19T13:29:58.452Z,8.83
2018-09-19T13:32:27.066Z,9.18
2018-09-19T13:34:55.698Z,7.00
2018-09-19T13:37:24.302Z,15.38
2018-09-19T13:39:53.011Z,12.20
2018-09-19T13:42:21.711Z,15.03
2018-09-19T13:44:50.957Z,12.95
2018-09-19T13:47:19.578Z,12.28
2018-09-19T13:49:52.896Z,12.98
2018-09-19T13:52:21.556Z,11.33
2018-09-19T13:54:50.244Z,14.80
2018-09-19T13:57:18.909Z,11.20
2018-09-19T13:59:47.604Z,11.88
2018-09-19T14:02:16.336Z,15.30
2018-09-19T14:04:45.000Z,12.58
2018-09-19T14:07:13.583Z,7.47
2018-09-19T14:09:42.171Z,11.10
2018-09-19T14:12:10.937Z,11.85
2018-09-19T14:14:39.667Z,16.35
2018-09-19T14:17:08.336Z,13.30
2018-09-19T14:19:36.991Z,10.85
2018-09-19T14:22:06.818Z,13.05
2018-09-19T14:24:35.460Z,11.68
2018-09-19T14:27:07.465Z,16.95
2018-09-19T14:29:36.071Z,13.15
2018-09-19T14:32:04.710Z,11.63
2018-09-19T14:34:35.619Z,10.78
2018-09-19T14:37:04.882Z,15.58
2018-09-19T14:39:33.474Z,14.75
2018-09-19T14:42:02.106Z,9.30
2018-09-19T14:44:30.769Z,9.23
2018-09-19T14:46:59.431Z,14.95
2018-09-19T14:49:28.102Z,17.98
2018-09-19T14:51:56.761Z,9.78
2018-09-19T14:54:25.637Z,17.45
2018-09-19T14:56:54.664Z,14.65
2018-09-19T14:59:23.306Z,12.82
2018-09-19T15:01:52.515Z,10.98
2018-09-19T15:04:21.238Z,12.30
2018-09-19T15:06:49.941Z,14.78
2018-09-19T15:09:18.580Z,10.75
2018-09-19T15:11:47.220Z,7.55
2018-09-19T15:14:15.853Z,12.80
2018-09-19T15:16:44.486Z,11.93
2018-09-19T15:19:13.321Z,16.82
2018-09-19T15:21:42.946Z,13.60
2018-09-19T15:24:11.598Z,13.20
2018-09-19T15:26:40.247Z,10.53
2018-09-19T15:29:08.894Z,12.37
2018-09-19T15:31:37.715Z,8.58
2018-09-19T15:34:06.373Z,9.15
2018-09-19T15:36:35.011Z,15.25
2018-09-19T15:39:04.148Z,8.55
2018-09-19T15:41:33.529Z,11.08
2018-09-19T15:44:02.317Z,7.87
2018-09-19T15:46:31.205Z,11.10
2018-09-19T15:49:01.280Z,9.90
2018-09-19T15:51:30.367Z,8.65
2018-09-19T15:53:59.201Z,8.95
2018-09-19T15:56:28.410Z,9.25
2018-09-19T15:58:59.178Z,14.33
2018-09-19T16:01:27.851Z,9.23
2018-09-19T16:03:56.549Z,9.65
2018-09-19T16:06:25.176Z,9.03
2018-09-19T16:08:53.814Z,10.10
2018-09-19T16:11:22.438Z,10.35
2018-09-19T16:13:51.085Z,9.90
2018-09-19T16:16:19.887Z,11.73
2018-09-19T16:18:48.671Z,14.13
2018-09-19T16:21:17.323Z,10.28
2018-09-19T16:23:46.094Z,11.48
2018-09-19T16:26:14.807Z,9.40
2018-09-19T16:28:43.452Z,11.75
2018-09-19T16:31:12.105Z,8.18
2018-09-19T16:33:40.783Z,8.05
2018-09-19T16:36:09.405Z,13.35
2018-09-19T16:38:38.045Z,11.05
2018-09-19T16:41:06.994Z,9.10
2018-09-19T16:43:35.718Z,10.32
2018-09-19T16:46:04.389Z,9.60
2018-09-19T16:48:33.086Z,11.85
2018-09-19T16:51:01.707Z,11.08
2018-09-19T16:53:30.359Z,13.85
2018-09-19T16:55:59.090Z,8.93
2018-09-19T16:58:27.727Z,11.35
2018-09-19T17:00:56.400Z,9.35
2018-09-19T17:03:25.044Z,15.83
2018-09-19T17:05:53.703Z,10.08
2018-09-19T17:08:22.413Z,13.70
2018-09-19T17:10:51.456Z,13.60
2018-09-19T17:13:20.067Z,11.30
2018-09-19T17:15:48.904Z,8.90
2018-09-19T17:18:17.574Z,19.23
2018-09-19T17:20:46.231Z,14.23
2018-09-19T17:23:14.893Z,11.65
2018-09-19T17:25:43.597Z,10.48
2018-09-19T17:28:13.096Z,12.85
2018-09-19T17:30:41.742Z,10.68
2018-09-19T17:33:10.477Z,8.43
2018-09-19T17:35:39.119Z,10.18
2018-09-19T17:38:07.827Z,14.47
2018-09-19T17:40:36.556Z,9.25
2018-09-19T17:43:05.252Z,10.95
2018-09-19T17:45:33.927Z,8.98
2018-09-19T17:48:03.056Z,8.78
2018-09-19T17:50:31.779Z,15.30
2018-09-19T17:53:00.444Z,9.45
2018-09-19T17:55:29.170Z,14.47
2018-09-19T17:57:57.819Z,12.20
2018-09-19T18:00:26.510Z,15.53
2018-09-19T18:02:55.238Z,12.10
2018-09-19T18:05:24.155Z,17.43
2018-09-19T18:07:52.851Z,10.20
2018-09-19T18:10:21.519Z,15.20
2018-09-19T18:12:50.171Z,12.30
2018-09-19T18:15:18.807Z,11.90
2018-09-19T18:17:47.460Z,13.98
2018-09-19T18:20:16.108Z,11.60
2018-09-19T18:22:44.764Z,14.90
2018-09-19T18:25:13.423Z,12.60
2018-09-19T18:27:42.030Z,9.90
2018-09-19T18:30:10.666Z,7.12
2018-09-19T18:32:39.368Z,10.78
2018-09-19T18:35:08.024Z,10.08
2018-09-19T18:37:36.698Z,11.00
2018-09-19T18:40:06.327Z,13.72
2018-09-19T18:42:34.954Z,10.58
2018-09-19T18:45:03.596Z,13.85
2018-09-19T18:47:32.223Z,12.78
2018-09-19T18:50:00.921Z,11.30
2018-09-19T18:52:29.531Z,8.80
2018-09-19T18:54:58.198Z,10.15
2018-09-19T18:57:26.857Z,8.85
2018-09-19T18:59:55.536Z,8.48
2018-09-19T19:02:24.195Z,9.40
2018-09-19T19:04:52.834Z,8.75
2018-09-19T19:07:21.450Z,11.12
2018-09-19T19:09:50.156Z,9.88
2018-09-19T19:12:18.765Z,10.75
2018-09-19T19:14:47.379Z,11.70
2018-09-19T19:17:16.152Z,11.95
2018-09-19T19:19:44.770Z,10.58
2018-09-19T19:22:13.438Z,11.05
2018-09-19T19:24:42.134Z,8.73
2018-09-19T19:27:10.764Z,9.60
2018-09-19T19:29:39.481Z,9.35
2018-09-19T19:32:08.162Z,10.65
2018-09-19T19:34:36.775Z,12.28
2018-09-19T19:37:05.581Z,7.12
2018-09-19T19:39:34.214Z,7.87
2018-09-19T19:42:02.893Z,10.03
2018-09-19T19:44:32.825Z,8.90
2018-09-19T19:47:02.421Z,7.25
2018-09-19T19:49:31.096Z,9.00
2018-09-19T19:51:59.763Z,8.45
2018-09-19T19:54:28.771Z,11.88
2018-09-19T19:56:58.668Z,8.28
2018-09-19T19:59:27.843Z,12.35
2018-09-19T20:01:56.558Z,10.40
2018-09-19T20:04:25.243Z,5.80
2018-09-19T20:06:53.974Z,12.65
2018-09-19T20:09:22.857Z,6.97
2018-09-19T20:11:51.569Z,9.70
2018-09-19T20:14:20.229Z,9.53
2018-09-19T20:16:48.974Z,6.83
2018-09-19T20:19:17.712Z,7.40
2018-09-19T20:21:46.403Z,7.65
2018-09-19T20:24:15.090Z,9.40
2018-09-19T20:26:43.829Z,7.83
2018-09-19T20:29:12.580Z,9.08
2018-09-19T20:31:41.342Z,7.47
2018-09-19T20:34:10.072Z,9.05
2018-09-19T20:36:39.580Z,10.10
2018-09-19T20:39:09.797Z,9.05
2018-09-19T20:41:40.645Z,12.23
2018-09-19T20:44:09.351Z,12.18
2018-09-19T20:46:38.097Z,9.45
2018-09-19T20:49:06.774Z,7.28
2018-09-19T20:51:35.542Z,8.75
2018-09-19T20:54:04.302Z,6.95
2018-09-19T20:56:32.988Z,9.53
2018-09-19T20:59:01.722Z,7.75
2018-09-19T21:01:30.430Z,8.18
2018-09-19T21:03:59.134Z,11.03
2018-09-19T21:06:28.710Z,8.13
2018-09-19T21:08:59.660Z,6.33
2018-09-19T21:11:28.370Z,9.10
2018-09-19T21:13:58.077Z,6.28
2018-09-19T21:16:26.781Z,5.80
2018-09-19T21:18:55.570Z,9.23
2018-09-19T21:21:24.298Z,9.58
2018-09-19T21:23:52.981Z,8.13
2018-09-19T21:26:22.379Z,8.60
2018-09-19T21:28:51.924Z,10.08
2018-09-19T21:31:20.602Z,12.37
2018-09-19T21:33:49.222Z,7.90
2018-09-19T21:36:17.817Z,5.05
2018-09-19T21:38:46.485Z,6.75
2018-09-19T21:41:15.166Z,5.90
2018-09-19T21:43:43.770Z,6.97
2018-09-19T21:46:12.337Z,9.75
2018-09-19T21:48:40.973Z,7.58
2018-09-19T21:51:09.546Z,3.85
2018-09-19T21:53:38.170Z,7.17
2018-09-19T21:56:06.778Z,5.25
2018-09-19T21:58:35.471Z,6.75
2018-09-19T22:01:08.164Z,6.87
2018-09-19T22:03:37.759Z,15.70
2018-09-19T22:06:06.402Z,15.65
2018-09-19T22:08:35.576Z,4.87
2018-09-19T22:11:04.368Z,6.22
2018-09-19T22:13:32.991Z,5.37
2018-09-19T22:16:01.641Z,6.12
2018-09-19T22:18:30.261Z,6.75
2018-09-19T22:20:58.891Z,7.15
2018-09-19T22:23:27.495Z,4.65
2018-09-19T22:25:56.150Z,9.40
2018-09-19T22:28:24.742Z,8.33
2018-09-19T22:30:53.446Z,9.25
2018-09-19T22:33:22.091Z,8.38
2018-09-19T22:35:50.670Z,6.90
2018-09-19T22:38:19.300Z,9.13
2018-09-19T22:40:47.891Z,8.33
2018-09-19T22:43:16.505Z,6.28
2018-09-19T22:45:45.391Z,9.03
2018-09-19T22:48:14.019Z,9.10
2018-09-19T22:50:42.602Z,7.10
2018-09-19T22:53:11.187Z,6.22
2018-09-19T22:55:39.766Z,7.35
2018-09-19T22:58:08.415Z,7.03
2018-09-19T23:00:37.032Z,5.97
2018-09-19T23:03:05.740Z,8.93
2018-09-19T23:05:34.356Z,7.37
2018-09-19T23:08:02.950Z,7.70
2018-09-19T23:10:38.095Z,8.20
2018-09-19T23:13:06.767Z,6.70
2018-09-19T23:15:35.339Z,7.75
2018-09-19T23:18:03.943Z,5.37
2018-09-19T23:20:32.573Z,5.92
2018-09-19T23:23:01.141Z,9.05
2018-09-19T23:25:29.711Z,8.83
2018-09-19T23:27:58.309Z,10.98
2018-09-19T23:30:26.865Z,4.83
2018-09-19T23:32:55.402Z,12.00
2018-09-19T23:35:24.032Z,8.03
2018-09-19T23:37:52.693Z,8.45
2018-09-19T23:40:21.302Z,8.38
2018-09-19T23:42:49.950Z,8.43
2018-09-19T23:45:19.426Z,10.93
2018-09-19T23:47:47.975Z,10.38
2018-09-19T23:50:16.570Z,5.67
2018-09-19T23:52:45.184Z,7.03
2018-09-19T23:55:13.753Z,8.07
2018-09-19T23:57:42.443Z,7.58
